Overview Statistics Trail Chart Weather Telemetry Raw packets
 

This is the latest recevied weather packets stored in our database for station/object K5BOU. If no packets are shown the sender has not sent any weather packets the latest 10 day(s).

<< 5 6 7 8 9 10 11 >>
Time Temp. Humidity Pressure Rain* Wind** Luminosity Snow
1788625430 32.78° C 71% 1012.8 hPa 0 mm - 808 W/m² -
1788625125 33.89° C 70% 1012.8 hPa 0 mm - 796 W/m² -
1788624824 32.78° C 72% 1012.3 hPa 0 mm - 773 W/m² -
1788624523 32.78° C 75% 1012.5 hPa 0 mm - 743 W/m² -
1788624223 32.22° C 78% 1012.8 hPa 0 mm - 715 W/m² -
1788623911 31.67° C 78% 1012.6 hPa 0 mm - 749 W/m² -
1788623611 31.67° C 78% 1012.3 hPa 0 mm - 132 W/m² -
1788623305 30.56° C 82% 1012.6 hPa 0 mm - 755 W/m² -
1788623001 31.11° C 85% 1012.7 hPa 0 mm - 151 W/m² -
1788622696 31.67° C 82% 1012.6 hPa 0 mm - 588 W/m² -
1788622393 32.78° C 79% 1012.8 hPa 0 mm - 780 W/m² -
1788622092 32.22° C 82% 1012.7 hPa 0 mm - 751 W/m² -
1788621791 31.11° C 83% 1012.7 hPa 0 mm - 701 W/m² -
1788621486 30.56° C 84% 1012.6 hPa 0 mm - 664 W/m² -
1788621182 30.56° C 86% 1012.9 hPa 0 mm - 632 W/m² -
1788620882 31.11° C 85% 1012.8 hPa 0 mm - 619 W/m² -
1788620582 30.56° C 89% 1012.9 hPa 0 mm - 568 W/m² -
1788620279 30.56° C 88% 1012.7 hPa 0 mm - 534 W/m² -
1788619973 30.56° C 90% 1012.6 hPa 0 mm - 453 W/m² -
1788619672 30.56° C 89% 1012.8 hPa 0 mm - 425 W/m² -
1788619368 30.56° C 91% 1012.8 hPa 0 mm - 391 W/m² -
1788619067 30° C 91% 1012.8 hPa 0 mm - 393 W/m² -
1788618761 30° C 92% 1012.8 hPa 0 mm - 364 W/m² -
1788618459 29.44° C 94% 1012.8 hPa 0 mm - 304 W/m² -
1788618154 30° C 93% 1012.8 hPa 0 mm - 306 W/m² -

* Rain latest hour (hover to see other rain measurements)
** Current wind speed in m/s (hover to see current wind gust speed)